createdAt,value
2023-02-08T00:00:44.292Z,25.65
2023-02-08T00:02:44.333Z,25.65
2023-02-08T00:04:44.323Z,25.75
2023-02-08T00:06:44.146Z,25.65
2023-02-08T00:08:44.311Z,25.61
2023-02-08T00:10:44.305Z,25.77
2023-02-08T00:12:44.284Z,25.65
2023-02-08T00:14:44.254Z,25.64
2023-02-08T00:16:44.097Z,25.75
2023-02-08T00:18:44.191Z,25.71
2023-02-08T00:20:44.344Z,25.72
2023-02-08T00:22:44.299Z,25.74
2023-02-08T00:24:44.109Z,25.72
2023-02-08T00:26:44.315Z,25.74
2023-02-08T00:28:44.148Z,25.60
2023-02-08T00:30:44.481Z,25.65
2023-02-08T00:32:44.346Z,25.65
2023-02-08T00:34:44.076Z,25.75
2023-02-08T00:36:44.132Z,25.64
2023-02-08T00:38:44.189Z,25.64
2023-02-08T00:40:44.369Z,25.72
2023-02-08T00:42:44.323Z,25.65
2023-02-08T00:44:44.244Z,25.65
2023-02-08T00:46:44.475Z,25.65
2023-02-08T00:48:44.180Z,25.72
2023-02-08T00:50:44.401Z,25.65
2023-02-08T00:52:44.345Z,25.63
2023-02-08T00:54:44.360Z,25.64
2023-02-08T00:56:44.350Z,25.79
2023-02-08T00:58:44.300Z,25.75
2023-02-08T01:00:44.390Z,25.77
2023-02-08T01:02:44.403Z,25.78
2023-02-08T01:04:44.344Z,25.65
2023-02-08T01:06:44.379Z,25.64
2023-02-08T01:08:44.351Z,25.65
2023-02-08T01:10:44.347Z,25.64
2023-02-08T01:12:44.415Z,25.72
2023-02-08T01:14:44.387Z,25.65
2023-02-08T01:16:44.297Z,25.65
2023-02-08T01:18:44.371Z,25.60
2023-02-08T01:20:44.376Z,25.65
2023-02-08T01:22:44.395Z,25.71
2023-02-08T01:24:44.383Z,25.65
2023-02-08T01:26:44.387Z,25.65
2023-02-08T01:28:44.407Z,25.74
2023-02-08T01:30:44.366Z,25.79
2023-02-08T01:32:44.209Z,25.65
2023-02-08T01:34:44.398Z,25.72
2023-02-08T01:36:44.364Z,25.64
2023-02-08T01:38:44.423Z,25.77
2023-02-08T01:40:44.392Z,25.65
2023-02-08T01:42:44.425Z,25.61
2023-02-08T01:44:44.381Z,25.72
2023-02-08T01:46:44.419Z,25.65
2023-02-08T01:48:44.446Z,25.76
2023-02-08T01:50:44.449Z,25.65
2023-02-08T01:52:44.431Z,25.80
2023-02-08T01:54:44.221Z,25.77
2023-02-08T01:56:44.415Z,25.64
2023-02-08T01:58:44.275Z,25.79
2023-02-08T02:00:44.443Z,25.78
2023-02-08T02:02:44.449Z,25.65
2023-02-08T02:04:44.470Z,25.72
2023-02-08T02:06:44.416Z,25.80
2023-02-08T02:08:44.469Z,25.65
2023-02-08T02:10:44.308Z,25.72
2023-02-08T02:12:44.446Z,25.63
2023-02-08T02:14:44.446Z,25.62
2023-02-08T02:16:44.456Z,25.80
2023-02-08T02:18:44.390Z,25.75
2023-02-08T02:20:44.401Z,25.63
2023-02-08T02:22:44.607Z,25.65
2023-02-08T02:24:44.406Z,25.60
2023-02-08T02:26:44.390Z,25.61
2023-02-08T02:28:44.333Z,25.65
2023-02-08T02:30:44.466Z,25.76
2023-02-08T02:32:44.399Z,25.63
2023-02-08T02:34:44.454Z,25.65
2023-02-08T02:36:44.297Z,25.74
2023-02-08T02:38:44.453Z,25.64
2023-02-08T02:40:44.414Z,25.65
2023-02-08T02:42:44.424Z,25.64
2023-02-08T02:44:44.479Z,25.71
2023-02-08T02:46:44.390Z,25.75
2023-02-08T02:48:44.447Z,25.75
2023-02-08T02:50:44.461Z,25.78
2023-02-08T02:52:44.457Z,25.72
2023-02-08T02:54:44.444Z,25.75
2023-02-08T02:56:44.482Z,25.77
2023-02-08T02:58:44.510Z,25.65
2023-02-08T03:00:44.295Z,25.75
2023-02-08T03:02:44.349Z,25.72
2023-02-08T03:04:44.453Z,25.65
2023-02-08T03:06:44.497Z,25.75
2023-02-08T03:08:44.469Z,25.72
2023-02-08T03:10:44.445Z,25.72
2023-02-08T03:12:44.495Z,25.65
2023-02-08T03:14:44.383Z,25.72
2023-02-08T03:16:44.614Z,25.75
2023-02-08T03:18:44.512Z,25.65
2023-02-08T03:20:44.464Z,25.75
2023-02-08T03:22:44.522Z,25.65
2023-02-08T03:24:44.495Z,25.75
2023-02-08T03:26:44.403Z,25.65
2023-02-08T03:28:44.350Z,25.77
2023-02-08T03:30:44.731Z,25.64
2023-02-08T03:32:44.411Z,25.75
2023-02-08T03:34:44.510Z,25.65
2023-02-08T03:36:44.524Z,25.72
2023-02-08T03:38:44.536Z,25.75
2023-02-08T03:40:44.536Z,25.77
2023-02-08T03:42:44.522Z,25.71
2023-02-08T03:44:44.449Z,25.63
2023-02-08T03:46:44.581Z,25.74
2023-02-08T03:48:44.482Z,25.75
2023-02-08T03:50:44.534Z,25.65
2023-02-08T03:52:44.534Z,25.79
2023-02-08T03:54:44.447Z,25.79
2023-02-08T03:56:44.506Z,25.65
2023-02-08T03:58:44.546Z,25.72
2023-02-08T04:00:44.591Z,25.71
2023-02-08T04:02:44.537Z,25.72
2023-02-08T04:04:44.365Z,25.65
2023-02-08T04:06:44.512Z,25.63
2023-02-08T04:08:44.561Z,25.65
2023-02-08T04:10:44.561Z,25.76
2023-02-08T04:12:44.549Z,25.65
2023-02-08T04:14:44.461Z,25.79
2023-02-08T04:16:44.588Z,25.62
2023-02-08T04:18:44.588Z,25.72
2023-02-08T04:20:44.422Z,25.65
2023-02-08T04:22:44.576Z,25.65
2023-02-08T04:24:44.555Z,25.72
2023-02-08T04:26:44.588Z,25.65
2023-02-08T04:28:44.598Z,25.72
2023-02-08T04:30:44.714Z,25.75
2023-02-08T04:32:44.611Z,25.75
2023-02-08T04:34:44.570Z,25.65
2023-02-08T04:36:44.629Z,25.65
2023-02-08T04:38:44.580Z,25.78
2023-02-08T04:40:44.494Z,25.75
2023-02-08T04:42:44.635Z,25.65
2023-02-08T04:44:44.591Z,25.65
2023-02-08T04:46:44.604Z,25.75
2023-02-08T04:48:44.589Z,25.65
2023-02-08T04:50:44.603Z,25.74
2023-02-08T04:52:44.611Z,25.65
2023-02-08T04:54:44.468Z,25.65
2023-02-08T04:56:44.614Z,25.72
2023-02-08T04:58:44.564Z,25.80
2023-02-08T05:00:44.616Z,25.71
2023-02-08T05:02:44.526Z,25.74
2023-02-08T05:04:44.683Z,25.77
2023-02-08T05:06:46.076Z,25.65
2023-02-08T05:08:44.593Z,25.65
2023-02-08T05:10:44.618Z,25.73
2023-02-08T05:12:46.194Z,25.64
2023-02-08T05:14:44.646Z,25.71
2023-02-08T05:16:44.617Z,25.72
2023-02-08T05:18:44.575Z,25.65
2023-02-08T05:20:44.618Z,25.79
2023-02-08T05:22:44.604Z,25.73
2023-02-08T05:24:44.626Z,25.70
2023-02-08T05:26:44.428Z,25.78
2023-02-08T05:28:44.655Z,25.65
2023-02-08T05:30:44.690Z,25.61
2023-02-08T05:32:44.635Z,25.64
2023-02-08T05:34:44.623Z,25.78
2023-02-08T05:36:44.489Z,25.79
2023-02-08T05:38:44.539Z,25.75
2023-02-08T05:40:44.457Z,25.61
2023-02-08T05:42:44.526Z,25.64
2023-02-08T05:44:44.468Z,25.79
2023-02-08T05:46:44.666Z,25.72
2023-02-08T05:48:44.656Z,25.65
2023-02-08T05:50:44.623Z,25.65
2023-02-08T05:52:44.684Z,25.64
2023-02-08T05:54:44.493Z,25.65
2023-02-08T05:56:44.635Z,25.75
2023-02-08T05:58:44.673Z,25.65
2023-02-08T06:00:44.681Z,25.65
2023-02-08T06:02:44.782Z,25.60
2023-02-08T06:04:44.696Z,25.78
2023-02-08T06:06:44.695Z,25.65
2023-02-08T06:08:44.717Z,25.64
2023-02-08T06:10:44.624Z,25.65
2023-02-08T06:12:44.631Z,25.22
2023-02-08T06:14:44.697Z,25.03
2023-02-08T06:16:44.589Z,24.95
2023-02-08T06:18:44.695Z,24.90
2023-02-08T06:20:44.530Z,24.85
2023-02-08T06:22:44.686Z,24.75
2023-02-08T06:24:44.688Z,24.71
2023-02-08T06:26:44.734Z,24.66
2023-02-08T06:28:44.495Z,24.61
2023-02-08T06:30:44.737Z,24.57
2023-02-08T06:32:44.765Z,24.51
2023-02-08T06:34:44.803Z,24.46
2023-02-08T06:36:44.515Z,24.43
2023-02-08T06:38:44.516Z,24.38
2023-02-08T06:40:44.693Z,24.41
2023-02-08T06:42:44.754Z,24.33
2023-02-08T06:44:54.345Z,24.25
2023-02-08T06:46:44.552Z,24.24
2023-02-08T06:48:44.736Z,24.27
2023-02-08T06:50:44.813Z,24.22
2023-02-08T06:52:44.743Z,24.18
2023-02-08T06:54:44.720Z,24.12
2023-02-08T06:56:44.704Z,24.23
2023-02-08T06:58:44.565Z,24.10
2023-02-08T07:00:44.651Z,24.10
2023-02-08T07:02:44.721Z,24.09
2023-02-08T07:04:44.798Z,24.09
2023-02-08T07:06:44.734Z,24.10
2023-02-08T07:08:44.716Z,24.08
2023-02-08T07:10:46.345Z,24.09
2023-02-08T07:12:44.724Z,24.03
2023-02-08T07:14:44.758Z,24.11
2023-02-08T07:16:44.769Z,24.12
2023-02-08T07:18:44.781Z,24.16
2023-02-08T07:20:44.806Z,24.18
2023-02-08T07:22:44.584Z,24.20
2023-02-08T07:24:44.743Z,24.28
2023-02-08T07:26:44.700Z,24.30
2023-02-08T07:28:44.617Z,24.28
2023-02-08T07:30:44.762Z,24.38
2023-02-08T07:32:44.769Z,24.41
2023-02-08T07:34:44.694Z,24.43
2023-02-08T07:36:44.801Z,24.53
2023-02-08T07:38:44.792Z,24.55
2023-02-08T07:40:44.800Z,24.66
2023-02-08T07:42:44.781Z,24.65
2023-02-08T07:44:44.778Z,24.80
2023-02-08T07:46:44.742Z,24.81
2023-02-08T07:48:44.721Z,24.86
2023-02-08T07:50:44.598Z,24.98
2023-02-08T07:52:44.670Z,25.11
2023-02-08T07:54:44.798Z,25.23
2023-02-08T07:56:44.629Z,25.51
2023-02-08T07:58:44.594Z,25.65
2023-02-08T08:00:44.786Z,25.62
2023-02-08T08:02:44.656Z,25.72
2023-02-08T08:04:44.801Z,25.60
2023-02-08T08:06:44.809Z,25.63
2023-02-08T08:08:44.643Z,25.61
2023-02-08T08:10:44.844Z,25.60
2023-02-08T08:12:44.875Z,25.55
2023-02-08T08:14:44.848Z,25.60
2023-02-08T08:16:44.856Z,25.52
2023-02-08T08:18:44.633Z,25.60
2023-02-08T08:20:44.825Z,25.60
2023-02-08T08:22:44.782Z,25.63
2023-02-08T08:24:44.757Z,25.62
2023-02-08T08:26:44.828Z,25.60
2023-02-08T08:28:44.891Z,25.64
2023-02-08T08:30:44.887Z,25.54
2023-02-08T08:32:44.807Z,25.52
2023-02-08T08:34:44.738Z,25.56
2023-02-08T08:36:44.826Z,25.60
2023-02-08T08:38:44.836Z,25.56
2023-02-08T08:40:44.869Z,25.61
2023-02-08T08:42:44.883Z,25.53
2023-02-08T08:44:44.869Z,25.54
2023-02-08T08:46:44.839Z,25.52
2023-02-08T08:48:44.894Z,25.52
2023-02-08T08:50:44.822Z,25.56
2023-02-08T08:52:44.855Z,25.49
2023-02-08T08:54:44.673Z,25.61
2023-02-08T08:56:44.843Z,25.54
2023-02-08T08:58:44.811Z,25.57
2023-02-08T09:00:44.774Z,25.51
2023-02-08T09:02:44.877Z,25.51
2023-02-08T09:04:44.876Z,25.49
2023-02-08T09:06:44.918Z,25.21
2023-02-08T09:08:44.723Z,25.38
2023-02-08T09:10:44.860Z,25.43
2023-02-08T09:12:44.914Z,25.33
2023-02-08T09:14:44.815Z,25.36
2023-02-08T09:16:44.873Z,25.37
2023-02-08T09:18:44.882Z,25.24
2023-02-08T09:20:45.175Z,25.33
2023-02-08T09:22:44.876Z,25.24
2023-02-08T09:24:44.817Z,25.35
2023-02-08T09:26:44.867Z,25.26
2023-02-08T09:28:44.695Z,25.23
2023-02-08T09:30:45.108Z,25.21
2023-02-08T09:32:44.871Z,25.25
2023-02-08T09:34:44.881Z,25.15
2023-02-08T09:36:44.868Z,25.22
2023-02-08T09:38:44.944Z,25.19
2023-02-08T09:40:45.111Z,25.18
2023-02-08T09:42:44.764Z,25.21
2023-02-08T09:44:44.889Z,25.18
2023-02-08T09:46:44.890Z,25.14
2023-02-08T09:48:44.910Z,25.19
2023-02-08T09:50:45.157Z,25.21
2023-02-08T09:52:44.880Z,25.22
2023-02-08T09:54:44.754Z,25.29
2023-02-08T09:56:44.956Z,25.28
2023-02-08T09:58:44.881Z,25.24
2023-02-08T10:00:45.114Z,25.24
2023-02-08T10:02:44.939Z,25.19
2023-02-08T10:04:44.931Z,25.23
2023-02-08T10:06:44.942Z,25.23
2023-02-08T10:08:44.897Z,25.23
2023-02-08T10:10:45.130Z,25.23
2023-02-08T10:12:44.788Z,25.23
2023-02-08T10:14:44.937Z,25.19
2023-02-08T10:16:44.926Z,25.18
2023-02-08T10:18:44.951Z,25.18
2023-02-08T10:20:45.124Z,25.29
2023-02-08T10:22:44.946Z,25.18
2023-02-08T10:24:44.947Z,25.22
2023-02-08T10:26:44.892Z,25.19
2023-02-08T10:28:44.794Z,25.18
2023-02-08T10:30:45.350Z,25.21
2023-02-08T10:32:44.970Z,25.23
2023-02-08T10:34:44.916Z,25.21
2023-02-08T10:36:44.893Z,25.24
2023-02-08T10:38:47.083Z,25.21
2023-02-08T10:40:45.138Z,25.23
2023-02-08T10:42:44.770Z,25.24
2023-02-08T10:44:46.455Z,25.26
2023-02-08T10:46:44.925Z,25.27
2023-02-08T10:48:44.833Z,25.25
2023-02-08T10:50:44.946Z,25.28
2023-02-08T10:52:44.926Z,25.28
2023-02-08T10:54:45.014Z,25.26
2023-02-08T10:56:44.862Z,25.43
2023-02-08T10:58:44.922Z,27.23
2023-02-08T11:00:44.959Z,25.27
2023-02-08T11:02:44.987Z,25.28
2023-02-08T11:04:44.892Z,25.34
2023-02-08T11:06:44.978Z,25.29
2023-02-08T11:08:44.998Z,25.33
2023-02-08T11:10:44.989Z,25.31
2023-02-08T11:12:44.972Z,25.29
2023-02-08T11:14:47.360Z,25.38
2023-02-08T11:16:45.021Z,25.33
2023-02-08T11:18:44.844Z,25.31
2023-02-08T11:20:44.901Z,25.29
2023-02-08T11:22:44.998Z,25.33
2023-02-08T11:24:44.985Z,25.36
2023-02-08T11:26:44.851Z,25.25
2023-02-08T11:28:45.011Z,25.26
2023-02-08T11:30:45.004Z,25.24
2023-02-08T11:32:45.300Z,25.24
2023-02-08T11:34:44.809Z,25.23
2023-02-08T11:36:44.858Z,25.22
2023-02-08T11:38:45.020Z,25.21
2023-02-08T11:40:44.994Z,25.23
2023-02-08T11:42:45.081Z,25.24
2023-02-08T11:44:45.005Z,25.24
2023-02-08T11:46:44.936Z,25.18
2023-02-08T11:48:45.017Z,25.23
2023-02-08T11:50:44.820Z,25.15
2023-02-08T11:52:45.078Z,25.11
2023-02-08T11:54:44.826Z,25.17
2023-02-08T11:56:45.020Z,25.21
2023-02-08T11:58:45.025Z,25.21
2023-02-08T12:00:45.034Z,25.24
2023-02-08T12:02:45.064Z,25.29
2023-02-08T12:04:45.046Z,25.28
2023-02-08T12:06:45.082Z,25.23
2023-02-08T12:08:45.051Z,25.24
2023-02-08T12:10:45.046Z,25.26
2023-02-08T12:12:44.985Z,25.31
2023-02-08T12:14:45.032Z,25.22
2023-02-08T12:16:45.070Z,25.19
2023-02-08T12:18:45.077Z,25.22
2023-02-08T12:20:45.007Z,25.23
2023-02-08T12:22:45.026Z,25.26
2023-02-08T12:24:45.008Z,25.21
2023-02-08T12:26:44.907Z,25.19
2023-02-08T12:28:45.052Z,25.21
2023-02-08T12:30:45.221Z,25.23
2023-02-08T12:32:45.099Z,25.13
2023-02-08T12:34:45.048Z,25.11
2023-02-08T12:36:45.070Z,25.12
2023-02-08T12:38:44.920Z,25.15
2023-02-08T12:40:44.911Z,25.23
2023-02-08T12:42:44.984Z,25.21
2023-02-08T12:44:45.069Z,25.19
2023-02-08T12:46:44.873Z,25.19
2023-02-08T12:48:45.060Z,25.18
2023-02-08T12:50:45.100Z,25.14
2023-02-08T12:52:45.053Z,25.15
2023-02-08T12:54:45.091Z,25.17
2023-02-08T12:56:53.543Z,25.21
2023-02-08T12:58:45.056Z,25.29
2023-02-08T13:00:45.348Z,25.22
2023-02-08T13:02:45.114Z,25.22
2023-02-08T13:04:45.106Z,25.24
2023-02-08T13:06:45.110Z,25.26
2023-02-08T13:08:45.044Z,25.14
2023-02-08T13:10:45.115Z,25.24
2023-02-08T13:12:45.121Z,25.26
2023-02-08T13:14:45.063Z,25.21
2023-02-08T13:16:45.175Z,25.25
2023-02-08T13:18:44.892Z,25.32
2023-02-08T13:20:45.130Z,25.35
2023-02-08T13:22:45.156Z,25.29
2023-02-08T13:24:46.321Z,25.23
2023-02-08T13:26:44.985Z,25.29
2023-02-08T13:28:44.968Z,25.26
2023-02-08T13:30:45.387Z,25.22
2023-02-08T13:32:44.936Z,25.15
2023-02-08T13:34:44.981Z,25.38
2023-02-08T13:36:45.157Z,25.32
2023-02-08T13:38:45.138Z,25.32
2023-02-08T13:40:45.472Z,25.24
2023-02-08T13:42:45.134Z,25.25
2023-02-08T13:44:45.065Z,25.21
2023-02-08T13:46:45.221Z,25.31
2023-02-08T13:48:45.153Z,25.30
2023-02-08T13:50:45.467Z,25.37
2023-02-08T13:52:48.530Z,25.31
2023-02-08T13:54:45.124Z,25.32
2023-02-08T13:56:45.033Z,25.29
2023-02-08T13:58:45.158Z,25.29
2023-02-08T14:00:45.322Z,25.33
2023-02-08T14:02:45.254Z,25.29
2023-02-08T14:04:45.122Z,25.28
2023-02-08T14:06:45.113Z,25.34
2023-02-08T14:08:44.992Z,25.33
2023-02-08T14:10:45.440Z,25.39
2023-02-08T14:12:45.412Z,25.34
2023-02-08T14:14:45.107Z,25.29
2023-02-08T14:16:44.969Z,25.24
2023-02-08T14:18:45.056Z,25.28
2023-02-08T14:20:45.042Z,25.28
2023-02-08T14:22:45.178Z,24.99
2023-02-08T14:24:45.193Z,25.22
2023-02-08T14:26:45.184Z,25.19
2023-02-08T14:28:44.939Z,25.17
2023-02-08T14:30:45.395Z,25.13
2023-02-08T14:32:45.055Z,25.17
2023-02-08T14:34:45.179Z,25.21
2023-02-08T14:36:45.186Z,25.14
2023-02-08T14:38:45.042Z,25.12
2023-02-08T14:40:45.217Z,25.12
2023-02-08T14:42:45.231Z,24.34
2023-02-08T14:44:45.472Z,24.09
2023-02-08T14:46:45.227Z,24.12
2023-02-08T14:48:45.212Z,24.16
2023-02-08T14:50:45.103Z,24.22
2023-02-08T14:52:45.248Z,24.40
2023-02-08T14:54:45.178Z,24.27
2023-02-08T14:56:45.283Z,24.25
2023-02-08T14:58:45.245Z,24.21
2023-02-08T15:00:45.161Z,24.19
2023-02-08T15:02:45.147Z,24.14
2023-02-08T15:04:45.272Z,23.55
2023-02-08T15:06:49.938Z,23.26
2023-02-08T15:08:45.035Z,23.36
2023-02-08T15:10:45.548Z,23.45
2023-02-08T15:12:45.177Z,23.42
2023-02-08T15:14:45.163Z,23.45
2023-02-08T15:16:45.254Z,23.40
2023-02-08T15:18:45.168Z,23.50
2023-02-08T15:20:45.443Z,23.50
2023-02-08T15:22:45.169Z,23.41
2023-02-08T15:24:45.102Z,23.42
2023-02-08T15:26:45.236Z,23.45
2023-02-08T15:28:45.240Z,23.42
2023-02-08T15:30:45.387Z,23.40
2023-02-08T15:32:45.094Z,23.41
2023-02-08T15:34:45.109Z,23.12
2023-02-08T15:36:45.270Z,23.03
2023-02-08T15:38:45.090Z,23.27
2023-02-08T15:40:45.311Z,23.63
2023-02-08T15:42:45.161Z,23.49
2023-02-08T15:44:45.200Z,23.49
2023-02-08T15:46:45.126Z,23.40
2023-02-08T15:48:45.269Z,23.49
2023-02-08T15:50:45.569Z,23.47
2023-02-08T15:52:45.121Z,23.38
2023-02-08T15:54:45.284Z,23.51
2023-02-08T15:56:45.263Z,23.44
2023-02-08T15:58:45.276Z,23.40
2023-02-08T16:00:45.677Z,23.45
2023-02-08T16:02:45.167Z,23.32
2023-02-08T16:04:45.293Z,23.29
2023-02-08T16:06:45.113Z,23.26
2023-02-08T16:08:45.129Z,23.27
2023-02-08T16:10:45.413Z,23.34
2023-02-08T16:12:45.224Z,23.33
2023-02-08T16:14:52.466Z,23.25
2023-02-08T16:16:45.363Z,23.22
2023-02-08T16:18:45.262Z,23.20
2023-02-08T16:20:45.653Z,23.24
2023-02-08T16:22:45.174Z,23.24
2023-02-08T16:24:45.271Z,23.22
2023-02-08T16:26:45.244Z,22.95
2023-02-08T16:28:45.254Z,22.97
2023-02-08T16:30:45.851Z,23.13
2023-02-08T16:32:45.252Z,23.22
2023-02-08T16:34:45.332Z,23.27
2023-02-08T16:36:45.321Z,23.25
2023-02-08T16:38:45.321Z,23.26
2023-02-08T16:40:45.547Z,23.29
2023-02-08T16:42:45.212Z,23.27
2023-02-08T16:44:45.205Z,23.26
2023-02-08T16:46:45.281Z,23.35
2023-02-08T16:48:45.255Z,23.27
2023-02-08T16:50:45.652Z,23.26
2023-02-08T16:52:45.344Z,23.31
2023-02-08T16:54:45.302Z,23.28
2023-02-08T16:56:45.332Z,23.27
2023-02-08T16:58:45.338Z,23.29
2023-02-08T17:00:45.857Z,23.27
2023-02-08T17:02:45.354Z,23.29
2023-02-08T17:04:45.136Z,23.27
2023-02-08T17:06:45.356Z,23.30
2023-02-08T17:08:45.315Z,23.29
2023-02-08T17:10:45.592Z,23.34
2023-02-08T17:12:45.360Z,23.38
2023-02-08T17:14:45.366Z,23.30
2023-02-08T17:16:45.371Z,23.31
2023-02-08T17:18:45.421Z,23.27
2023-02-08T17:20:45.392Z,23.37
2023-02-08T17:22:45.203Z,23.34
2023-02-08T17:24:45.357Z,23.28
2023-02-08T17:26:45.284Z,23.11
2023-02-08T17:28:45.402Z,23.31
2023-02-08T17:30:45.416Z,23.31
2023-02-08T17:32:45.401Z,23.29
2023-02-08T17:34:45.377Z,23.30
2023-02-08T17:36:45.386Z,23.31
2023-02-08T17:38:45.381Z,23.31
2023-02-08T17:40:45.360Z,23.33
2023-02-08T17:42:47.407Z,23.33
2023-02-08T17:44:45.345Z,23.38
2023-02-08T17:46:45.384Z,23.34
2023-02-08T17:48:47.293Z,23.39
2023-02-08T17:50:45.756Z,23.34
2023-02-08T17:52:45.198Z,23.31
2023-02-08T17:54:45.202Z,23.34
2023-02-08T17:56:45.232Z,23.34
2023-02-08T17:58:45.289Z,23.30
2023-02-08T18:00:45.320Z,23.35
2023-02-08T18:02:45.418Z,23.30
2023-02-08T18:04:45.339Z,23.34
2023-02-08T18:06:45.384Z,23.37
2023-02-08T18:08:45.476Z,23.36
2023-02-08T18:10:45.465Z,23.32
2023-02-08T18:12:45.395Z,23.38
2023-02-08T18:14:45.498Z,23.29
2023-02-08T18:16:45.391Z,23.34
2023-02-08T18:18:45.411Z,23.31
2023-02-08T18:20:45.380Z,23.31
2023-02-08T18:22:45.427Z,23.33
2023-02-08T18:24:45.272Z,23.40
2023-02-08T18:26:45.233Z,23.35
2023-02-08T18:28:45.434Z,23.34
2023-02-08T18:30:45.323Z,23.35
2023-02-08T18:32:45.423Z,23.30
2023-02-08T18:34:45.447Z,23.33
2023-02-08T18:36:45.415Z,23.34
2023-02-08T18:38:45.466Z,23.34
2023-02-08T18:40:45.436Z,23.39
2023-02-08T18:42:45.246Z,23.38
2023-02-08T18:44:45.430Z,23.36
2023-02-08T18:46:45.461Z,23.33
2023-02-08T18:48:45.433Z,23.39
2023-02-08T18:50:45.420Z,23.41
2023-02-08T18:52:45.426Z,23.30
2023-02-08T18:54:45.441Z,23.31
2023-02-08T18:56:45.470Z,23.31
2023-02-08T18:58:45.453Z,23.34
2023-02-08T19:00:45.558Z,23.17
2023-02-08T19:02:45.462Z,23.34
2023-02-08T19:04:45.463Z,23.30
2023-02-08T19:06:45.438Z,23.30
2023-02-08T19:08:45.438Z,23.31
2023-02-08T19:10:45.415Z,23.34
2023-02-08T19:12:45.398Z,23.41
2023-02-08T19:14:45.455Z,23.41
2023-02-08T19:16:45.335Z,23.36
2023-02-08T19:18:45.297Z,23.34
2023-02-08T19:20:45.488Z,23.30
2023-02-08T19:22:45.449Z,23.36
2023-02-08T19:24:45.322Z,23.30
2023-02-08T19:26:45.272Z,23.39
2023-02-08T19:28:45.327Z,23.40
2023-02-08T19:30:45.532Z,23.29
2023-02-08T19:32:45.505Z,23.33
2023-02-08T19:34:45.281Z,23.38
2023-02-08T19:36:45.346Z,23.31
2023-02-08T19:38:45.551Z,23.25
2023-02-08T19:40:45.398Z,23.25
2023-02-08T19:42:45.490Z,23.23
2023-02-08T19:44:45.483Z,23.31
2023-02-08T19:46:45.522Z,23.25
2023-02-08T19:48:45.498Z,23.26
2023-02-08T19:50:45.521Z,23.25
2023-02-08T19:52:45.326Z,23.26
2023-02-08T19:54:45.561Z,23.10
2023-02-08T19:56:45.579Z,23.14
2023-02-08T19:58:45.549Z,23.27
2023-02-08T20:00:45.383Z,23.32
2023-02-08T20:02:45.392Z,23.25
2023-02-08T20:04:45.667Z,23.24
2023-02-08T20:06:45.553Z,23.26
2023-02-08T20:08:45.459Z,23.25
2023-02-08T20:10:45.538Z,23.39
2023-02-08T20:12:45.584Z,23.34
2023-02-08T20:14:45.536Z,23.34
2023-02-08T20:16:45.653Z,23.34
2023-02-08T20:18:45.508Z,23.25
2023-02-08T20:20:45.588Z,23.31
2023-02-08T20:22:45.547Z,23.29
2023-02-08T20:24:45.547Z,23.36
2023-02-08T20:26:45.558Z,23.27
2023-02-08T20:28:45.583Z,23.34
2023-02-08T20:30:45.454Z,23.31
2023-02-08T20:32:45.513Z,23.34
2023-02-08T20:34:58.516Z,23.35
2023-02-08T20:36:57.480Z,23.33
2023-02-08T20:38:45.569Z,23.34
2023-02-08T20:40:45.732Z,23.30
2023-02-08T20:42:45.633Z,23.27
2023-02-08T20:44:45.523Z,23.31
2023-02-08T20:46:45.536Z,23.39
2023-02-08T20:48:45.374Z,23.31
2023-02-08T20:50:45.897Z,23.34
2023-02-08T20:52:45.583Z,23.34
2023-02-08T20:54:45.519Z,23.37
2023-02-08T20:56:45.422Z,23.35
2023-02-08T20:58:45.499Z,23.30
2023-02-08T21:00:46.531Z,23.39
2023-02-08T21:02:45.735Z,23.31
2023-02-08T21:04:45.405Z,23.38
2023-02-08T21:06:45.622Z,23.31
2023-02-08T21:08:45.601Z,23.38
2023-02-08T21:10:45.707Z,23.31
2023-02-08T21:12:45.421Z,23.34
2023-02-08T21:14:45.593Z,23.36
2023-02-08T21:16:45.662Z,23.33
2023-02-08T21:18:45.631Z,23.29
2023-02-08T21:20:45.950Z,23.36
2023-02-08T21:22:45.658Z,23.43
2023-02-08T21:24:45.448Z,23.34
2023-02-08T21:26:45.625Z,23.37
2023-02-08T21:28:45.891Z,23.34
2023-02-08T21:30:45.936Z,23.30
2023-02-08T21:32:45.838Z,23.33
2023-02-08T21:34:45.720Z,23.43
2023-02-08T21:36:45.638Z,23.34
2023-02-08T21:38:45.660Z,23.31
2023-02-08T21:40:45.766Z,23.29
2023-02-08T21:42:45.471Z,23.33
2023-02-08T21:44:45.593Z,23.39
2023-02-08T21:46:45.676Z,23.30
2023-02-08T21:48:45.620Z,23.41
2023-02-08T21:50:45.972Z,23.36
2023-02-08T21:52:45.658Z,23.35
2023-02-08T21:54:45.788Z,23.37
2023-02-08T21:56:45.620Z,23.34
2023-02-08T21:58:45.638Z,23.38
2023-02-08T22:00:45.969Z,23.33
2023-02-08T22:02:45.613Z,23.38
2023-02-08T22:04:45.630Z,23.33
2023-02-08T22:06:45.556Z,23.31
2023-02-08T22:08:45.622Z,23.34
2023-02-08T22:10:57.566Z,23.34
2023-02-08T22:12:45.419Z,23.41
2023-02-08T22:14:45.652Z,23.34
2023-02-08T22:16:45.654Z,23.34
2023-02-08T22:18:45.534Z,23.31
2023-02-08T22:20:45.938Z,23.37
2023-02-08T22:22:45.574Z,23.34
2023-02-08T22:24:45.532Z,23.31
2023-02-08T22:26:45.674Z,23.31
2023-02-08T22:28:45.535Z,23.33
2023-02-08T22:30:45.915Z,23.31
2023-02-08T22:32:45.675Z,23.37
2023-02-08T22:34:45.681Z,23.39
2023-02-08T22:36:45.605Z,23.29
2023-02-08T22:38:45.721Z,23.30
2023-02-08T22:40:45.990Z,23.26
2023-02-08T22:42:45.729Z,23.27
2023-02-08T22:44:45.695Z,23.11
2023-02-08T22:46:45.604Z,23.39
2023-02-08T22:48:45.702Z,23.39
2023-02-08T22:50:45.944Z,23.31
2023-02-08T22:52:45.658Z,23.33
2023-02-08T22:54:45.730Z,23.26
2023-02-08T22:56:45.752Z,23.30
2023-02-08T22:58:45.527Z,23.34
2023-02-08T23:00:45.960Z,23.34
2023-02-08T23:02:45.729Z,23.27
2023-02-08T23:04:45.563Z,23.27
2023-02-08T23:06:45.490Z,23.31
2023-02-08T23:08:45.740Z,23.35
2023-02-08T23:10:46.112Z,23.30
2023-02-08T23:12:45.760Z,23.27
2023-02-08T23:14:45.697Z,23.31
2023-02-08T23:16:45.648Z,23.36
2023-02-08T23:18:45.592Z,23.28
2023-02-08T23:20:46.133Z,23.34
2023-02-08T23:22:45.726Z,23.29
2023-02-08T23:24:45.581Z,23.30
2023-02-08T23:26:45.599Z,23.36
2023-02-08T23:28:45.738Z,23.30
2023-02-08T23:30:46.104Z,23.33
2023-02-08T23:32:45.601Z,23.33
2023-02-08T23:34:45.663Z,23.37
2023-02-08T23:36:45.716Z,23.26
2023-02-08T23:38:45.719Z,23.26
2023-02-08T23:40:45.868Z,23.33
2023-02-08T23:42:45.757Z,23.31
2023-02-08T23:44:45.732Z,23.26
2023-02-08T23:46:45.869Z,23.30
2023-02-08T23:48:45.792Z,23.31
2023-02-08T23:50:46.038Z,23.36
2023-02-08T23:52:45.595Z,23.25
2023-02-08T23:54:45.586Z,23.31
2023-02-08T23:56:45.759Z,23.26
2023-02-08T23:58:45.736Z,23.34
